Time;durP1;ratioP1;P1;durP2;ratioP2;P2;SDS_P1;SDS_P2;PMS_P1;PMS_P2;Temp;Humidity;BMP_temperature;BMP_pressure;BME280_temperature;BME280_humidity;BME280_pressure;Samples;Min_cycle;Max_cycle;Signal;HPM_P1;HPM_P2
2022/09/11 00:01:26;;;;;;;0.05;0.05;;;15.40;99.90;;;;;;5042353;28;20202;-64
2022/09/11 00:03:53;;;;;;;0.00;0.00;;;15.30;99.90;;;;;;5041648;28;20193;-64
2022/09/11 00:06:20;;;;;;;0.00;0.00;;;15.40;99.90;;;;;;5045400;28;20189;-64
2022/09/11 00:08:48;;;;;;;0.00;0.00;;;15.40;99.90;;;;;;5038746;28;20173;-63
2022/09/11 00:11:16;;;;;;;0.00;0.00;;;15.40;99.90;;;;;;5041518;28;20190;-64
2022/09/11 00:13:44;;;;;;;0.00;0.00;;;15.40;99.90;;;;;;5049488;28;20264;-64
2022/09/11 00:16:24;;;;;;;0.00;0.00;;;15.40;99.90;;;;;;5041089;28;20177;-63
2022/09/11 00:18:49;;;;;;;0.00;0.00;;;15.30;99.90;;;;;;5039392;28;20186;-63
2022/09/11 00:21:16;;;;;;;0.00;0.00;;;15.30;99.90;;;;;;5049983;28;20197;-63
2022/09/11 00:23:43;;;;;;;0.00;0.00;;;15.30;99.90;;;;;;5042326;28;20548;-63
2022/09/11 00:26:09;;;;;;;0.00;0.00;;;15.30;99.90;;;;;;5048710;28;20209;-63
2022/09/11 00:28:35;;;;;;;0.00;0.00;;;15.30;99.90;;;;;;5035330;28;20185;-65
2022/09/11 00:31:12;;;;;;;0.00;0.00;;;15.30;99.90;;;;;;5040658;28;20189;-65
2022/09/11 00:33:38;;;;;;;0.00;0.00;;;15.30;99.90;;;;;;5032644;28;20189;-64
2022/09/11 00:36:16;;;;;;;0.00;0.00;;;15.30;99.90;;;;;;5032995;28;20269;-64
2022/09/11 00:38:42;;;;;;;0.00;0.00;;;15.40;99.90;;;;;;5043925;28;20192;-64
2022/09/11 00:41:13;;;;;;;0.00;0.00;;;15.40;99.90;;;;;;5048437;28;20181;-64
2022/09/11 00:43:54;;;;;;;0.00;0.00;;;15.30;99.90;;;;;;5025823;28;20189;-65
2022/09/11 00:46:23;;;;;;;0.00;0.00;;;15.40;99.90;;;;;;5031736;28;20236;-65
2022/09/11 00:48:49;;;;;;;0.00;0.00;;;15.40;99.90;;;;;;5032527;28;20517;-65
2022/09/11 00:51:20;;;;;;;0.00;0.00;;;15.40;99.90;;;;;;5033155;28;20489;-65
2022/09/11 00:53:48;;;;;;;0.00;0.00;;;15.40;99.90;;;;;;5041157;28;20200;-65
2022/09/11 00:56:14;;;;;;;0.00;0.00;;;15.40;99.90;;;;;;5047384;28;20224;-65
2022/09/11 00:58:42;;;;;;;0.00;0.00;;;15.40;99.90;;;;;;5040960;28;20260;-65
2022/09/11 01:01:09;;;;;;;0.00;0.00;;;15.40;99.90;;;;;;5030512;28;20510;-65
2022/09/11 01:03:35;;;;;;;0.00;0.00;;;15.40;99.90;;;;;;5038919;28;20261;-64
2022/09/11 01:06:01;;;;;;;0.00;0.00;;;15.30;99.90;;;;;;5041364;28;20216;-64
2022/09/11 01:08:27;;;;;;;0.00;0.00;;;15.30;99.90;;;;;;5050469;28;20257;-65
2022/09/11 01:11:19;;;;;;;0.10;0.10;;;15.30;99.90;;;;;;5042744;28;20272;-65
2022/09/11 01:14:09;;;;;;;0.00;0.00;;;15.30;99.90;;;;;;5037119;28;20285;-65
2022/09/11 01:16:48;;;;;;;0.00;0.00;;;15.30;99.90;;;;;;5037565;28;20178;-65
2022/09/11 01:19:32;;;;;;;0.00;0.00;;;15.30;99.90;;;;;;5050886;28;20185;-65
2022/09/11 01:22:03;;;;;;;0.00;0.00;;;15.30;99.90;;;;;;5011606;28;20183;-65
2022/09/11 01:24:47;;;;;;;0.00;0.00;;;15.30;99.90;;;;;;5030311;28;20293;-65
2022/09/11 01:27:39;;;;;;;0.00;0.00;;;15.30;99.90;;;;;;5033284;28;20204;-65
2022/09/11 01:30:09;;;;;;;0.00;0.00;;;15.30;99.90;;;;;;5050802;28;20545;-65
2022/09/11 01:32:58;;;;;;;0.00;0.00;;;15.30;99.90;;;;;;5035314;28;20208;-65
2022/09/11 01:35:32;;;;;;;0.00;0.00;;;15.30;99.90;;;;;;5038481;28;20206;-65
2022/09/11 01:38:03;;;;;;;0.00;0.00;;;15.30;99.90;;;;;;5036539;28;20178;-65
2022/09/11 01:40:38;;;;;;;0.00;0.00;;;15.30;99.90;;;;;;5043877;28;20585;-65
2022/09/11 01:43:08;;;;;;;0.50;0.08;;;15.30;99.90;;;;;;5039290;28;20185;-65
2022/09/11 01:45:36;;;;;;;0.00;0.00;;;15.20;99.90;;;;;;5051597;28;20300;-65
2022/09/11 01:48:02;;;;;;;0.00;0.00;;;15.30;99.90;;;;;;5050352;28;20213;-65
2022/09/11 01:50:29;;;;;;;0.00;0.00;;;15.20;99.90;;;;;;5054044;28;20239;-64
2022/09/11 01:52:57;;;;;;;0.00;0.00;;;15.30;99.90;;;;;;5050369;28;20579;-64
2022/09/11 01:55:48;;;;;;;0.00;0.00;;;15.20;99.90;;;;;;5045287;28;20190;-64
2022/09/11 01:58:21;;;;;;;0.00;0.00;;;15.30;99.90;;;;;;5050025;28;20671;-64
2022/09/11 02:00:50;;;;;;;0.00;0.00;;;15.30;99.90;;;;;;5036393;28;20902;-65
2022/09/11 02:03:21;;;;;;;0.00;0.00;;;15.30;99.90;;;;;;5042711;28;20218;-64
2022/09/11 02:06:02;;;;;;;0.00;0.00;;;15.30;99.90;;;;;;5049918;28;20296;-65
2022/09/11 02:08:43;;;;;;;0.00;0.00;;;15.30;99.90;;;;;;5048236;28;20678;-65
2022/09/11 02:11:12;;;;;;;0.20;0.20;;;15.30;99.90;;;;;;5041973;28;20667;-65
2022/09/11 02:14:05;;;;;;;0.00;0.00;;;15.30;99.90;;;;;;5041027;28;20182;-64
2022/09/11 02:16:51;;;;;;;0.00;0.00;;;15.40;99.90;;;;;;5048534;28;20174;-65
2022/09/11 02:19:19;;;;;;;0.00;0.00;;;15.40;99.90;;;;;;5048974;28;20175;-64
2022/09/11 02:21:46;;;;;;;0.00;0.00;;;15.30;99.90;;;;;;5047863;28;20231;-65
2022/09/11 02:24:13;;;;;;;0.00;0.00;;;15.30;99.90;;;;;;5035021;28;20265;-65
2022/09/11 02:26:44;;;;;;;0.00;0.00;;;15.30;99.90;;;;;;5036235;28;20197;-65
2022/09/11 02:29:11;;;;;;;0.05;0.05;;;15.30;99.90;;;;;;5047946;28;20189;-65
2022/09/11 02:31:37;;;;;;;0.00;0.00;;;15.30;99.90;;;;;;5046850;28;20269;-65
2022/09/11 02:34:03;;;;;;;0.00;0.00;;;15.30;99.90;;;;;;5046006;28;20177;-65
2022/09/11 02:36:50;;;;;;;0.15;0.15;;;15.30;99.90;;;;;;5042120;28;20724;-65
2022/09/11 02:39:26;;;;;;;0.10;0.10;;;15.30;99.90;;;;;;5045176;28;20185;-64
2022/09/11 02:42:01;;;;;;;0.05;0.05;;;15.40;99.90;;;;;;5032409;28;20177;-64
2022/09/11 02:44:53;;;;;;;0.00;0.00;;;15.40;99.90;;;;;;5044980;28;20658;-65
2022/09/11 02:47:27;;;;;;;0.00;0.00;;;15.40;99.90;;;;;;5034525;28;20209;-65
2022/09/11 02:50:14;;;;;;;0.00;0.00;;;15.40;99.90;;;;;;5033820;28;20175;-65
2022/09/11 02:53:15;;;;;;;0.10;0.10;;;15.40;99.90;;;;;;5033216;28;20178;-65
2022/09/11 02:55:52;;;;;;;0.00;0.00;;;15.40;99.90;;;;;;5034451;28;20193;-64
2022/09/11 02:58:34;;;;;;;0.00;0.00;;;15.40;99.90;;;;;;5048840;28;20216;-65
2022/09/11 03:01:01;;;;;;;0.13;0.13;;;15.40;99.90;;;;;;5043538;28;20173;-65
2022/09/11 03:03:27;;;;;;;0.00;0.00;;;15.40;99.90;;;;;;5049660;28;20252;-64
2022/09/11 03:05:52;;;;;;;0.10;0.10;;;15.40;99.90;;;;;;5046141;28;20260;-64
2022/09/11 03:08:19;;;;;;;0.00;0.00;;;15.40;99.90;;;;;;5041240;28;20189;-64
2022/09/11 03:10:48;;;;;;;0.05;0.05;;;15.40;99.90;;;;;;5047405;28;20170;-64
2022/09/11 03:13:14;;;;;;;0.00;0.00;;;15.40;99.90;;;;;;5038529;28;20178;-65
2022/09/11 03:15:43;;;;;;;0.00;0.00;;;15.40;99.90;;;;;;5036642;28;20537;-64
2022/09/11 03:18:10;;;;;;;0.05;0.05;;;15.40;99.90;;;;;;5039698;28;20216;-65
2022/09/11 03:20:36;;;;;;;0.28;0.28;;;15.40;99.90;;;;;;5043774;28;20187;-65
2022/09/11 03:23:06;;;;;;;0.00;0.00;;;15.40;99.90;;;;;;5046736;28;20184;-65
2022/09/11 03:25:32;;;;;;;0.00;0.00;;;15.40;99.90;;;;;;5046319;28;20355;-64
2022/09/11 03:27:57;;;;;;;0.10;0.10;;;15.40;99.90;;;;;;5038198;28;20260;-65
2022/09/11 03:30:23;;;;;;;0.00;0.00;;;15.40;99.90;;;;;;5041955;28;20190;-65
2022/09/11 03:32:48;;;;;;;0.00;0.00;;;15.40;99.90;;;;;;5033644;28;20208;-64
2022/09/11 03:35:15;;;;;;;0.60;0.20;;;15.40;99.90;;;;;;5048641;28;20182;-64
2022/09/11 03:37:40;;;;;;;0.00;0.00;;;15.40;99.90;;;;;;5043426;28;20170;-65
2022/09/11 03:40:06;;;;;;;0.00;0.00;;;15.40;99.90;;;;;;5047780;28;20189;-64
2022/09/11 03:42:32;;;;;;;0.00;0.00;;;15.40;99.90;;;;;;5050158;28;20231;-64
2022/09/11 03:44:57;;;;;;;0.00;0.00;;;15.40;99.90;;;;;;5048734;28;20213;-65
2022/09/11 03:47:23;;;;;;;0.00;0.00;;;15.40;99.90;;;;;;5048299;28;20185;-65
2022/09/11 03:49:48;;;;;;;0.00;0.00;;;15.40;99.90;;;;;;5031960;28;20182;-64
2022/09/11 03:52:14;;;;;;;0.00;0.00;;;15.40;99.90;;;;;;5046529;28;20217;-64
2022/09/11 03:54:39;;;;;;;0.00;0.00;;;15.40;99.90;;;;;;5039371;28;20176;-64
2022/09/11 03:57:05;;;;;;;0.00;0.00;;;15.40;99.90;;;;;;5034694;28;20182;-64
2022/09/11 03:59:31;;;;;;;0.00;0.00;;;15.40;99.90;;;;;;5046142;28;20208;-64
2022/09/11 04:01:57;;;;;;;0.00;0.00;;;15.40;99.90;;;;;;5047008;28;20253;-64
2022/09/11 04:04:23;;;;;;;0.00;0.00;;;15.40;99.90;;;;;;5036199;28;20204;-65
2022/09/11 04:06:48;;;;;;;0.00;0.00;;;15.40;99.90;;;;;;5035711;28;20251;-65
2022/09/11 04:09:14;;;;;;;1.30;1.20;;;15.50;99.90;;;;;;5045166;28;20186;-65
2022/09/11 04:11:39;;;;;;;0.15;0.15;;;15.50;99.90;;;;;;5035632;28;20197;-65
2022/09/11 04:14:06;;;;;;;0.08;0.08;;;15.50;99.90;;;;;;5044648;28;20177;-65
2022/09/11 04:16:32;;;;;;;0.10;0.10;;;15.50;99.90;;;;;;5046399;28;20192;-65
2022/09/11 04:18:59;;;;;;;0.00;0.00;;;15.60;99.90;;;;;;5035652;28;20178;-65
2022/09/11 04:21:26;;;;;;;0.00;0.00;;;15.60;99.90;;;;;;5034612;28;20178;-65
2022/09/11 04:23:55;;;;;;;0.00;0.00;;;15.60;99.90;;;;;;5035834;28;20169;-65
2022/09/11 04:26:22;;;;;;;0.00;0.00;;;15.60;99.90;;;;;;5049750;28;20287;-65
2022/09/11 04:28:48;;;;;;;0.00;0.00;;;15.60;99.90;;;;;;5051440;28;20208;-65
2022/09/11 04:31:16;;;;;;;0.00;0.00;;;15.60;99.90;;;;;;5034315;28;20204;-65
2022/09/11 04:33:42;;;;;;;0.00;0.00;;;15.60;99.90;;;;;;5044088;28;20177;-65
2022/09/11 04:36:11;;;;;;;0.00;0.00;;;15.60;99.90;;;;;;5038732;28;20185;-65
2022/09/11 04:38:39;;;;;;;0.00;0.00;;;15.60;99.90;;;;;;5039723;28;20182;-65
2022/09/11 04:41:06;;;;;;;0.00;0.00;;;15.50;99.90;;;;;;5029740;28;20245;-65
2022/09/11 04:43:33;;;;;;;0.00;0.00;;;15.50;99.90;;;;;;5032076;28;20894;-65
2022/09/11 04:46:04;;;;;;;0.00;0.00;;;15.50;99.90;;;;;;5040125;28;20307;-65
2022/09/11 04:48:29;;;;;;;0.00;0.00;;;15.50;99.90;;;;;;5036187;28;20664;-65
2022/09/11 04:51:00;;;;;;;0.00;0.00;;;15.50;99.90;;;;;;5032702;28;20186;-65
2022/09/11 04:53:27;;;;;;;0.00;0.00;;;15.50;99.90;;;;;;5039721;28;20722;-65
2022/09/11 04:56:00;;;;;;;0.00;0.00;;;15.50;99.90;;;;;;5033780;28;20198;-65
2022/09/11 04:58:26;;;;;;;0.00;0.00;;;15.60;99.90;;;;;;5035008;28;20186;-65
2022/09/11 05:00:51;;;;;;;0.00;0.00;;;15.60;99.90;;;;;;5045328;28;20185;-65
2022/09/11 05:03:17;;;;;;;0.00;0.00;;;15.70;99.90;;;;;;5042422;28;20226;-66
2022/09/11 05:05:42;;;;;;;0.00;0.00;;;15.70;99.90;;;;;;5036646;28;20309;-65
2022/09/11 05:08:08;;;;;;;0.08;0.08;;;15.70;99.90;;;;;;5032096;28;20186;-65
2022/09/11 05:10:37;;;;;;;0.00;0.00;;;15.70;99.90;;;;;;5044947;28;20513;-65
2022/09/11 05:13:02;;;;;;;0.05;0.05;;;15.70;99.90;;;;;;5042162;28;20182;-66
2022/09/11 05:15:30;;;;;;;0.00;0.00;;;15.80;99.90;;;;;;5038313;28;20524;-65
2022/09/11 05:17:56;;;;;;;0.00;0.00;;;15.80;99.90;;;;;;5035438;28;20618;-64
2022/09/11 05:20:22;;;;;;;0.13;0.13;;;15.80;99.90;;;;;;5053651;28;20197;-64
2022/09/11 05:22:49;;;;;;;0.00;0.00;;;15.80;99.90;;;;;;5055057;28;20213;-64
2022/09/11 05:25:15;;;;;;;0.00;0.00;;;15.80;99.90;;;;;;5036263;28;20214;-64
2022/09/11 05:27:40;;;;;;;0.00;0.00;;;15.80;99.90;;;;;;5036274;28;20201;-64
2022/09/11 05:30:06;;;;;;;0.00;0.00;;;15.80;99.90;;;;;;5035392;28;20182;-64
2022/09/11 05:32:32;;;;;;;0.00;0.00;;;15.80;99.90;;;;;;5044698;28;20178;-64
2022/09/11 05:34:58;;;;;;;0.00;0.00;;;15.80;99.90;;;;;;5037267;28;20231;-64
2022/09/11 05:37:24;;;;;;;0.00;0.00;;;15.80;99.90;;;;;;5048835;28;20224;-63
2022/09/11 05:39:50;;;;;;;0.00;0.00;;;15.80;99.90;;;;;;5047526;28;20181;-65
2022/09/11 05:42:16;;;;;;;0.00;0.00;;;15.80;99.90;;;;;;5035436;28;20179;-65
2022/09/11 05:44:42;;;;;;;0.00;0.00;;;15.80;99.90;;;;;;5048777;28;20205;-65
2022/09/11 05:47:08;;;;;;;0.15;0.00;;;15.80;99.90;;;;;;5048174;28;20177;-65
2022/09/11 05:49:34;;;;;;;0.00;0.00;;;15.70;99.90;;;;;;5043063;28;20268;-65
2022/09/11 05:52:00;;;;;;;0.00;0.00;;;15.80;99.90;;;;;;5043141;28;20200;-62
2022/09/11 05:54:26;;;;;;;0.00;0.00;;;15.80;99.90;;;;;;5044261;28;20174;-60
2022/09/11 05:56:51;;;;;;;0.00;0.00;;;15.90;99.90;;;;;;5041720;28;20185;-63
2022/09/11 05:59:18;;;;;;;0.00;0.00;;;15.90;99.90;;;;;;5053473;28;20204;-63
2022/09/11 06:01:45;;;;;;;0.00;0.00;;;16.00;99.90;;;;;;5044177;28;20198;-68
2022/09/11 06:04:12;;;;;;;0.00;0.00;;;16.00;99.90;;;;;;5040848;28;20264;-67
2022/09/11 06:06:38;;;;;;;0.00;0.00;;;16.00;99.90;;;;;;5052750;28;20307;-64
2022/09/11 06:09:04;;;;;;;0.00;0.00;;;16.10;99.90;;;;;;5037190;28;20273;-65
2022/09/11 06:11:30;;;;;;;0.00;0.00;;;16.10;99.90;;;;;;5030035;28;20186;-65
2022/09/11 06:13:55;;;;;;;0.00;0.00;;;16.10;99.90;;;;;;5052717;28;20179;-65
2022/09/11 06:16:22;;;;;;;0.00;0.00;;;16.10;99.90;;;;;;5042850;28;20189;-66
2022/09/11 06:18:49;;;;;;;0.00;0.00;;;16.10;99.90;;;;;;5040279;28;20236;-66
2022/09/11 06:21:18;;;;;;;0.00;0.00;;;16.10;99.90;;;;;;5042141;28;20180;-66
2022/09/11 06:23:45;;;;;;;0.00;0.00;;;16.20;99.90;;;;;;5053324;28;20205;-65
2022/09/11 06:26:13;;;;;;;0.08;0.08;;;16.10;99.90;;;;;;5043417;28;20221;-65
2022/09/11 06:28:39;;;;;;;0.00;0.00;;;16.20;99.90;;;;;;5033657;28;20181;-65
2022/09/11 06:31:07;;;;;;;0.00;0.00;;;16.20;99.90;;;;;;5053381;28;20185;-65
2022/09/11 06:33:37;;;;;;;0.00;0.00;;;16.20;99.90;;;;;;5039854;28;20653;-65
2022/09/11 06:36:11;;;;;;;0.00;0.00;;;16.20;99.90;;;;;;5035602;28;20175;-64
2022/09/11 06:38:37;;;;;;;0.00;0.00;;;16.20;99.90;;;;;;5034480;28;20186;-64
2022/09/11 06:41:04;;;;;;;1.30;0.82;;;16.30;99.90;;;;;;5048302;28;20239;-64
2022/09/11 06:43:31;;;;;;;0.08;0.08;;;16.50;99.90;;;;;;5049173;28;20192;-64
2022/09/11 06:46:11;;;;;;;0.10;0.10;;;16.80;99.90;;;;;;5050091;28;20255;-65
2022/09/11 06:48:38;;;;;;;0.00;0.00;;;17.00;99.90;;;;;;5017969;28;20170;-66
2022/09/11 06:51:05;;;;;;;0.00;0.00;;;17.00;99.90;;;;;;5034549;28;20182;-66
2022/09/11 06:53:30;;;;;;;0.00;0.00;;;16.90;99.90;;;;;;5036645;28;20265;-66
2022/09/11 06:56:04;;;;;;;0.00;0.00;;;16.90;99.90;;;;;;5039722;28;20341;-65
2022/09/11 06:58:30;;;;;;;0.00;0.00;;;16.80;99.90;;;;;;5040929;28;20229;-66
2022/09/11 07:01:02;;;;;;;0.00;0.00;;;16.80;99.90;;;;;;5040407;28;20197;-64
2022/09/11 07:03:28;;;;;;;0.00;0.00;;;16.80;99.90;;;;;;5044900;28;20226;-66
2022/09/11 07:05:54;;;;;;;0.00;0.00;;;16.80;99.90;;;;;;5034017;28;20388;-65
2022/09/11 07:08:19;;;;;;;0.00;0.00;;;16.80;99.90;;;;;;5042652;28;20181;-65
2022/09/11 07:10:45;;;;;;;0.00;0.00;;;16.90;99.90;;;;;;5043448;28;20186;-65
2022/09/11 07:13:10;;;;;;;0.00;0.00;;;17.00;99.90;;;;;;5039568;28;20185;-65
2022/09/11 07:15:36;;;;;;;0.00;0.00;;;17.20;99.90;;;;;;5032677;28;20276;-65
2022/09/11 07:18:01;;;;;;;0.00;0.00;;;17.20;99.90;;;;;;5034145;28;20174;-65
2022/09/11 07:20:28;;;;;;;0.00;0.00;;;17.30;99.90;;;;;;5038007;28;20178;-63
2022/09/11 07:22:54;;;;;;;0.00;0.00;;;17.40;99.90;;;;;;5035201;28;20190;-63
2022/09/11 07:25:19;;;;;;;0.10;0.10;;;17.50;99.90;;;;;;5045961;28;20229;-59
2022/09/11 07:27:45;;;;;;;0.00;0.00;;;17.50;99.90;;;;;;5036596;28;20649;-64
2022/09/11 07:30:11;;;;;;;0.00;0.00;;;17.50;99.90;;;;;;5034473;28;20262;-64
2022/09/11 07:32:37;;;;;;;0.00;0.00;;;17.50;99.90;;;;;;5036687;28;20189;-64
2022/09/11 07:35:04;;;;;;;0.00;0.00;;;17.50;99.90;;;;;;5051181;28;20165;-64
2022/09/11 07:37:29;;;;;;;0.00;0.00;;;17.60;99.90;;;;;;5044312;28;20189;-64
2022/09/11 07:39:55;;;;;;;0.00;0.00;;;17.90;99.90;;;;;;5030981;28;20170;-64
2022/09/11 07:42:20;;;;;;;0.00;0.00;;;18.10;99.90;;;;;;5030834;28;20182;-64
2022/09/11 07:44:46;;;;;;;0.00;0.00;;;18.60;99.90;;;;;;5030198;28;20201;-63
2022/09/11 07:47:11;;;;;;;0.00;0.00;;;19.00;99.90;;;;;;5032333;28;20171;-64
2022/09/11 07:49:37;;;;;;;0.00;0.00;;;19.30;99.90;;;;;;5033388;28;20194;-64
2022/09/11 07:52:03;;;;;;;0.00;0.00;;;19.40;99.90;;;;;;5051548;28;20578;-64
2022/09/11 07:54:29;;;;;;;0.08;0.08;;;19.50;99.90;;;;;;5051541;28;20272;-64
2022/09/11 07:56:54;;;;;;;0.00;0.00;;;19.80;99.90;;;;;;5052169;28;20264;-64
2022/09/11 07:59:21;;;;;;;0.00;0.00;;;20.20;99.90;;;;;;5052290;28;20531;-64
2022/09/11 08:01:49;;;;;;;0.00;0.00;;;20.80;99.90;;;;;;5051859;28;20225;-64
2022/09/11 08:04:15;;;;;;;0.00;0.00;;;21.40;99.90;;;;;;5052089;28;20175;-64
2022/09/11 08:06:41;;;;;;;0.00;0.00;;;21.90;99.90;;;;;;5051894;28;20185;-64
2022/09/11 08:09:11;;;;;;;0.00;0.00;;;22.00;99.90;;;;;;5051935;28;20174;-64
2022/09/11 08:11:38;;;;;;;0.00;0.00;;;21.80;99.90;;;;;;5032343;28;20200;-64
2022/09/11 08:14:06;;;;;;;0.00;0.00;;;22.10;99.90;;;;;;5032043;28;20192;-64
2022/09/11 08:16:31;;;;;;;0.20;0.20;;;22.20;99.90;;;;;;5031891;28;20260;-64
2022/09/11 08:18:57;;;;;;;0.05;0.05;;;22.00;99.90;;;;;;5014720;28;20582;-64
2022/09/11 08:21:25;;;;;;;0.00;0.00;;;21.70;99.90;;;;;;5012178;28;20742;-64
2022/09/11 08:23:50;;;;;;;0.00;0.00;;;21.50;99.90;;;;;;5012002;28;20229;-64
2022/09/11 08:26:22;;;;;;;0.00;0.00;;;21.30;99.90;;;;;;5012097;28;20241;-64
2022/09/11 08:28:49;;;;;;;0.00;0.00;;;21.20;99.90;;;;;;5012003;28;20175;-64
2022/09/11 08:31:16;;;;;;;0.03;0.03;;;20.90;99.90;;;;;;5011981;28;20191;-64
2022/09/11 08:33:42;;;;;;;0.00;0.00;;;20.50;99.90;;;;;;5011903;28;20175;-64
2022/09/11 08:36:13;;;;;;;0.00;0.00;;;20.30;99.90;;;;;;5012126;28;20200;-64
2022/09/11 08:38:39;;;;;;;0.08;0.08;;;20.30;99.90;;;;;;5011834;28;20202;-64
2022/09/11 08:41:26;;;;;;;0.00;0.00;;;20.30;99.90;;;;;;5012117;28;20269;-64
2022/09/11 08:44:00;;;;;;;0.00;0.00;;;20.40;99.90;;;;;;5012155;28;20197;-64
2022/09/11 08:46:33;;;;;;;0.00;0.00;;;20.80;99.90;;;;;;5016062;28;20213;-64
2022/09/11 08:49:05;;;;;;;0.00;0.00;;;21.00;99.90;;;;;;5016085;28;20179;-64
2022/09/11 08:51:31;;;;;;;0.00;0.00;;;21.60;99.90;;;;;;5015928;28;20186;-64
2022/09/11 08:53:58;;;;;;;0.00;0.00;;;21.50;99.90;;;;;;5016013;28;20174;-64
2022/09/11 08:56:28;;;;;;;0.00;0.00;;;21.30;99.90;;;;;;5015795;28;20210;-64
2022/09/11 08:59:12;;;;;;;0.10;0.10;;;21.10;99.90;;;;;;5015900;28;20166;-64
2022/09/11 09:01:45;;;;;;;0.00;0.00;;;20.80;99.90;;;;;;5015631;28;20246;-64
2022/09/11 09:04:50;;;;;;;0.00;0.00;;;20.50;99.90;;;;;;5015721;28;20642;-64
2022/09/11 09:07:46;;;;;;;0.00;0.00;;;20.50;99.90;;;;;;5033323;28;20185;-64
2022/09/11 09:10:42;;;;;;;0.00;0.00;;;20.50;99.90;;;;;;5033255;28;20190;-64
2022/09/11 09:13:46;;;;;;;0.00;0.00;;;21.20;99.90;;;;;;5035030;28;20260;-64
2022/09/11 09:16:42;;;;;;;0.00;0.00;;;22.10;99.90;;;;;;5035565;28;20645;-64
2022/09/11 09:19:30;;;;;;;0.00;0.00;;;22.50;99.90;;;;;;5016542;28;20175;-64
2022/09/11 09:22:10;;;;;;;0.10;0.10;;;22.70;99.90;;;;;;5015165;28;20186;-64
2022/09/11 09:24:45;;;;;;;0.05;0.05;;;22.40;99.90;;;;;;5015222;28;20530;-64
2022/09/11 09:27:27;;;;;;;0.00;0.00;;;22.00;99.90;;;;;;5015415;28;20298;-64
2022/09/11 09:29:54;;;;;;;0.20;0.10;;;21.50;99.90;;;;;;5015338;28;20182;-64
2022/09/11 09:32:32;;;;;;;0.00;0.00;;;20.90;99.90;;;;;;5015243;28;20175;-64
2022/09/11 09:35:02;;;;;;;0.00;0.00;;;20.60;99.90;;;;;;5015270;28;20175;-64
2022/09/11 09:37:28;;;;;;;0.00;0.00;;;20.30;99.90;;;;;;5015224;28;20171;-64
2022/09/11 09:39:54;;;;;;;0.00;0.00;;;20.20;99.90;;;;;;5015191;28;20221;-64
2022/09/11 09:42:38;;;;;;;0.00;0.00;;;20.20;99.90;;;;;;5014925;28;20195;-64
2022/09/11 09:45:30;;;;;;;0.00;0.00;;;20.30;99.90;;;;;;5015139;28;20361;-65
2022/09/11 09:47:56;;;;;;;0.00;0.00;;;20.50;99.90;;;;;;5015038;28;20179;-64
2022/09/11 09:50:32;;;;;;;0.00;0.00;;;20.80;99.90;;;;;;5014851;28;20181;-65
2022/09/11 09:53:12;;;;;;;0.00;0.00;;;21.00;99.90;;;;;;5014987;28;20178;-65
2022/09/11 09:55:39;;;;;;;0.00;0.00;;;21.10;99.90;;;;;;5014817;28;20253;-65
2022/09/11 09:58:06;;;;;;;0.00;0.00;;;21.10;99.90;;;;;;5014808;28;20310;-65
2022/09/11 10:00:33;;;;;;;0.00;0.00;;;21.20;99.90;;;;;;5014781;28;20179;-65
2022/09/11 10:03:17;;;;;;;0.00;0.00;;;21.30;99.90;;;;;;5014458;28;20233;-65
2022/09/11 10:05:43;;;;;;;0.00;0.00;;;21.50;99.90;;;;;;5014434;28;20237;-65
2022/09/11 10:08:30;;;;;;;0.00;0.00;;;21.60;99.90;;;;;;5014735;28;20531;-65
2022/09/11 10:10:58;;;;;;;0.00;0.00;;;21.80;99.90;;;;;;5028231;28;20213;-65
2022/09/11 10:13:27;;;;;;;0.00;0.00;;;21.90;99.90;;;;;;5034321;28;20170;-65
2022/09/11 10:15:58;;;;;;;0.00;0.00;;;21.90;99.90;;;;;;5034421;28;20189;-65
2022/09/11 10:18:41;;;;;;;0.00;0.00;;;21.80;99.90;;;;;;5021420;28;20543;-65
2022/09/11 10:21:28;;;;;;;0.00;0.00;;;21.70;99.90;;;;;;5014534;28;20187;-65
2022/09/11 10:23:57;;;;;;;0.10;0.08;;;21.60;99.90;;;;;;5014471;28;20261;-65
2022/09/11 10:26:26;;;;;;;0.08;0.00;;;21.70;99.90;;;;;;5014165;28;20210;-65
2022/09/11 10:28:57;;;;;;;0.10;0.10;;;22.00;99.90;;;;;;5014210;28;20282;-64
2022/09/11 10:31:23;;;;;;;0.15;0.00;;;22.60;99.90;;;;;;5014161;28;20678;-64
2022/09/11 10:33:57;;;;;;;0.00;0.00;;;23.20;99.90;;;;;;5014140;28;20290;-64
2022/09/11 10:36:28;;;;;;;0.00;0.00;;;23.70;98.90;;;;;;5014005;28;20273;-64
2022/09/11 10:38:56;;;;;;;0.00;0.00;;;23.90;97.40;;;;;;5014124;28;20537;-65
2022/09/11 10:41:27;;;;;;;0.00;0.00;;;24.00;96.20;;;;;;5013919;28;20199;-64
2022/09/11 10:44:05;;;;;;;0.10;0.10;;;24.00;96.30;;;;;;5013734;28;20194;-65
2022/09/11 10:46:36;;;;;;;0.05;0.05;;;23.80;96.50;;;;;;5029019;28;20616;-65
2022/09/11 10:49:04;;;;;;;0.20;0.17;;;23.30;97.10;;;;;;5013800;28;20167;-64
2022/09/11 10:51:33;;;;;;;0.00;0.00;;;22.50;99.10;;;;;;5013825;28;20657;-64
2022/09/11 10:54:15;;;;;;;0.20;0.20;;;21.70;99.90;;;;;;5013852;28;20175;-64
2022/09/11 10:56:59;;;;;;;0.00;0.00;;;21.10;99.90;;;;;;5013661;28;20175;-65
2022/09/11 10:59:49;;;;;;;0.00;0.00;;;20.80;99.90;;;;;;5013747;28;20170;-65
2022/09/11 11:02:30;;;;;;;0.10;0.10;;;20.60;99.90;;;;;;5013493;28;20767;-65
2022/09/11 11:05:02;;;;;;;0.00;0.00;;;20.50;99.90;;;;;;5013562;28;20261;-65
2022/09/11 11:07:44;;;;;;;0.00;0.00;;;20.60;99.90;;;;;;5013024;28;20167;-65
2022/09/11 11:10:30;;;;;;;0.00;0.00;;;20.80;99.90;;;;;;5020983;28;20198;-66
2022/09/11 11:13:17;;;;;;;0.00;0.00;;;21.00;99.90;;;;;;5033233;28;20281;-66
2022/09/11 11:15:48;;;;;;;0.00;0.00;;;21.10;99.90;;;;;;5033081;28;20186;-65
2022/09/11 11:19:03;;;;;;;0.00;0.00;;;21.30;99.90;;;;;;5021675;28;20517;-66
2022/09/11 11:21:37;;;;;;;0.00;0.00;;;21.40;99.90;;;;;;5013854;28;20274;-65
2022/09/11 11:24:31;;;;;;;0.00;0.00;;;21.50;99.90;;;;;;5013298;28;20266;-65
2022/09/11 11:27:21;;;;;;;0.00;0.00;;;21.60;99.90;;;;;;5013260;28;20289;-65
2022/09/11 11:29:52;;;;;;;0.00;0.00;;;21.50;99.90;;;;;;5013005;28;20175;-66
2022/09/11 11:32:39;;;;;;;0.00;0.00;;;21.40;99.90;;;;;;5013091;28;20669;-65
2022/09/11 11:35:29;;;;;;;0.00;0.00;;;21.50;99.90;;;;;;5013243;28;20646;-66
2022/09/11 11:38:24;;;;;;;0.00;0.00;;;21.50;99.90;;;;;;5013048;28;20309;-66
2022/09/11 11:41:06;;;;;;;0.28;0.28;;;21.50;99.90;;;;;;5013083;28;20171;-65
2022/09/11 11:43:33;;;;;;;0.00;0.00;;;21.60;99.90;;;;;;5011718;28;20530;-65
2022/09/11 11:46:14;;;;;;;0.00;0.00;;;21.80;99.90;;;;;;5012717;28;20214;-65
2022/09/11 11:48:49;;;;;;;0.00;0.00;;;21.90;99.90;;;;;;5012651;28;20166;-65
2022/09/11 11:51:25;;;;;;;0.00;0.00;;;22.00;99.90;;;;;;5012828;28;20178;-65
2022/09/11 11:53:58;;;;;;;0.38;0.10;;;22.20;99.90;;;;;;5012720;28;20172;-65
2022/09/11 11:56:51;;;;;;;0.00;0.00;;;22.30;99.90;;;;;;5012755;28;20186;-66
2022/09/11 11:59:35;;;;;;;0.00;0.00;;;22.30;99.90;;;;;;5012715;28;20262;-66
2022/09/11 12:02:12;;;;;;;0.00;0.00;;;22.50;99.90;;;;;;5012524;28;20280;-66
2022/09/11 12:04:51;;;;;;;0.15;0.15;;;22.50;99.90;;;;;;5024808;28;20266;-66
2022/09/11 12:07:29;;;;;;;0.03;0.03;;;22.50;99.90;;;;;;5033337;28;20182;-66
2022/09/11 12:09:57;;;;;;;0.03;0.03;;;22.60;99.90;;;;;;5028365;28;20603;-66
2022/09/11 12:12:27;;;;;;;0.20;0.10;;;22.80;99.90;;;;;;5035638;28;20272;-65
2022/09/11 12:15:17;;;;;;;0.00;0.00;;;22.90;99.90;;;;;;5032092;28;20174;-65
2022/09/11 12:17:42;;;;;;;0.00;0.00;;;22.90;99.90;;;;;;5031768;28;20209;-67
2022/09/11 12:20:11;;;;;;;0.08;0.08;;;23.10;99.90;;;;;;5029925;28;20221;-66
2022/09/11 12:22:45;;;;;;;0.00;0.00;;;23.50;99.90;;;;;;5031881;28;20731;-66
2022/09/11 12:25:20;;;;;;;0.00;0.00;;;23.80;99.90;;;;;;5031983;28;20213;-67
2022/09/11 12:27:45;;;;;;;0.00;0.00;;;24.10;99.20;;;;;;5031940;28;20524;-66
2022/09/11 12:30:16;;;;;;;0.00;0.00;;;24.20;98.30;;;;;;5035599;28;20185;-66
2022/09/11 12:32:50;;;;;;;0.10;0.10;;;24.10;99.10;;;;;;5031612;28;20205;-66
2022/09/11 12:35:22;;;;;;;0.00;0.00;;;24.10;97.50;;;;;;5045569;28;20185;-65
2022/09/11 12:38:08;;;;;;;0.13;0.00;;;24.10;98.50;;;;;;5037362;28;20181;-64
2022/09/11 12:41:00;;;;;;;0.03;0.03;;;24.30;98.50;;;;;;5036769;28;20178;-65
2022/09/11 12:43:35;;;;;;;0.00;0.00;;;24.60;97.50;;;;;;5040818;28;20182;-65
2022/09/11 12:46:07;;;;;;;0.00;0.00;;;24.60;95.70;;;;;;5032757;28;20307;-66
2022/09/11 12:48:43;;;;;;;0.08;0.08;;;24.60;96.60;;;;;;5036869;28;20182;-65
2022/09/11 12:51:21;;;;;;;0.00;0.00;;;24.50;95.20;;;;;;5035394;28;20209;-65
2022/09/11 12:53:51;;;;;;;0.00;0.00;;;24.40;94.00;;;;;;5011914;28;20529;-65
2022/09/11 12:56:20;;;;;;;0.10;0.10;;;24.40;94.60;;;;;;5012023;28;20185;-65
2022/09/11 12:58:56;;;;;;;0.05;0.05;;;24.40;95.80;;;;;;5011993;28;20206;-65
2022/09/11 13:01:34;;;;;;;0.05;0.05;;;24.50;94.70;;;;;;5012460;28;20214;-66
2022/09/11 13:04:13;;;;;;;0.00;0.00;;;24.40;95.10;;;;;;5040385;28;20186;-65
2022/09/11 13:06:46;;;;;;;0.00;0.00;;;24.20;95.50;;;;;;5042874;28;20213;-65
2022/09/11 13:09:20;;;;;;;0.00;0.00;;;24.00;96.10;;;;;;5031452;28;20182;-65
2022/09/11 13:11:50;;;;;;;0.00;0.00;;;23.60;95.90;;;;;;5015822;28;20182;-66